sensor_id;sensor_type;location;lat;lon;timestamp;P1;durP1;ratioP1;P2;durP2;ratioP2
61397;SDS011;47267;48.130;-2.040;2023-04-03T00:00:43;3.10;;;1.30;;
61397;SDS011;47267;48.130;-2.040;2023-04-03T00:03:09;2.35;;;1.30;;
61397;SDS011;47267;48.130;-2.040;2023-04-03T00:05:35;2.97;;;1.38;;
61397;SDS011;47267;48.130;-2.040;2023-04-03T00:08:01;3.13;;;1.42;;
61397;SDS011;47267;48.130;-2.040;2023-04-03T00:10:34;3.15;;;1.20;;
61397;SDS011;47267;48.130;-2.040;2023-04-03T00:13:01;3.92;;;1.38;;
61397;SDS011;47267;48.130;-2.040;2023-04-03T00:15:30;3.05;;;1.25;;
61397;SDS011;47267;48.130;-2.040;2023-04-03T00:17:59;2.55;;;1.42;;
61397;SDS011;47267;48.130;-2.040;2023-04-03T00:20:25;2.08;;;1.20;;
61397;SDS011;47267;48.130;-2.040;2023-04-03T00:22:52;4.18;;;1.67;;
61397;SDS011;47267;48.130;-2.040;2023-04-03T00:25:21;2.63;;;1.40;;
61397;SDS011;47267;48.130;-2.040;2023-04-03T00:27:48;2.67;;;1.45;;
61397;SDS011;47267;48.130;-2.040;2023-04-03T00:30:14;1.88;;;1.02;;
61397;SDS011;47267;48.130;-2.040;2023-04-03T00:32:42;3.17;;;1.52;;
61397;SDS011;47267;48.130;-2.040;2023-04-03T00:35:09;2.45;;;1.40;;
61397;SDS011;47267;48.130;-2.040;2023-04-03T00:37:35;3.72;;;1.52;;
61397;SDS011;47267;48.130;-2.040;2023-04-03T00:40:01;2.60;;;1.35;;
61397;SDS011;47267;48.130;-2.040;2023-04-03T00:42:28;4.18;;;1.38;;
61397;SDS011;47267;48.130;-2.040;2023-04-03T00:47:23;2.13;;;1.30;;
61397;SDS011;47267;48.130;-2.040;2023-04-03T00:49:50;2.92;;;1.52;;
61397;SDS011;47267;48.130;-2.040;2023-04-03T00:52:19;2.22;;;1.27;;
61397;SDS011;47267;48.130;-2.040;2023-04-03T00:54:49;3.23;;;1.50;;
61397;SDS011;47267;48.130;-2.040;2023-04-03T00:57:20;3.22;;;1.50;;
61397;SDS011;47267;48.130;-2.040;2023-04-03T00:59:49;1.77;;;1.02;;
61397;SDS011;47267;48.130;-2.040;2023-04-03T01:02:19;2.92;;;1.58;;
61397;SDS011;47267;48.130;-2.040;2023-04-03T01:04:48;2.47;;;1.40;;
61397;SDS011;47267;48.130;-2.040;2023-04-03T01:07:28;2.00;;;1.30;;
61397;SDS011;47267;48.130;-2.040;2023-04-03T01:09:56;2.72;;;0.98;;
61397;SDS011;47267;48.130;-2.040;2023-04-03T01:12:26;1.90;;;1.20;;
61397;SDS011;47267;48.130;-2.040;2023-04-03T01:14:57;2.65;;;1.30;;
61397;SDS011;47267;48.130;-2.040;2023-04-03T01:23:02;2.10;;;1.15;;
61397;SDS011;47267;48.130;-2.040;2023-04-03T01:25:46;2.50;;;1.40;;
61397;SDS011;47267;48.130;-2.040;2023-04-03T01:28:18;3.10;;;1.50;;
61397;SDS011;47267;48.130;-2.040;2023-04-03T01:30:47;2.85;;;1.38;;
61397;SDS011;47267;48.130;-2.040;2023-04-03T01:33:21;2.00;;;1.05;;
61397;SDS011;47267;48.130;-2.040;2023-04-03T01:35:47;3.63;;;1.65;;
61397;SDS011;47267;48.130;-2.040;2023-04-03T01:38:15;3.22;;;1.52;;
61397;SDS011;47267;48.130;-2.040;2023-04-03T01:40:41;2.42;;;1.38;;
61397;SDS011;47267;48.130;-2.040;2023-04-03T01:43:10;3.92;;;1.50;;
61397;SDS011;47267;48.130;-2.040;2023-04-03T01:45:35;3.05;;;1.40;;
61397;SDS011;47267;48.130;-2.040;2023-04-03T01:48:01;3.03;;;1.48;;
61397;SDS011;47267;48.130;-2.040;2023-04-03T01:50:27;3.00;;;1.45;;
61397;SDS011;47267;48.130;-2.040;2023-04-03T01:52:55;2.88;;;1.60;;
61397;SDS011;47267;48.130;-2.040;2023-04-03T01:55:21;2.65;;;1.33;;
61397;SDS011;47267;48.130;-2.040;2023-04-03T01:57:47;3.75;;;1.60;;
61397;SDS011;47267;48.130;-2.040;2023-04-03T02:00:13;2.08;;;1.05;;
61397;SDS011;47267;48.130;-2.040;2023-04-03T02:02:39;2.45;;;1.27;;
61397;SDS011;47267;48.130;-2.040;2023-04-03T02:05:06;2.20;;;1.30;;
61397;SDS011;47267;48.130;-2.040;2023-04-03T02:07:35;2.92;;;1.30;;
61397;SDS011;47267;48.130;-2.040;2023-04-03T02:10:01;2.03;;;1.10;;
61397;SDS011;47267;48.130;-2.040;2023-04-03T02:12:27;3.10;;;1.50;;
61397;SDS011;47267;48.130;-2.040;2023-04-03T02:14:52;2.28;;;1.15;;
61397;SDS011;47267;48.130;-2.040;2023-04-03T02:17:18;2.08;;;1.23;;
61397;SDS011;47267;48.130;-2.040;2023-04-03T02:19:43;2.72;;;1.38;;
61397;SDS011;47267;48.130;-2.040;2023-04-03T02:22:09;2.85;;;1.40;;
61397;SDS011;47267;48.130;-2.040;2023-04-03T02:24:35;2.92;;;1.38;;
61397;SDS011;47267;48.130;-2.040;2023-04-03T02:27:05;2.13;;;1.25;;
61397;SDS011;47267;48.130;-2.040;2023-04-03T02:29:31;2.50;;;1.27;;
61397;SDS011;47267;48.130;-2.040;2023-04-03T02:31:56;2.25;;;1.10;;
61397;SDS011;47267;48.130;-2.040;2023-04-03T02:34:22;2.53;;;1.30;;
61397;SDS011;47267;48.130;-2.040;2023-04-03T02:36:48;1.73;;;1.13;;
61397;SDS011;47267;48.130;-2.040;2023-04-03T02:39:13;2.15;;;1.20;;
61397;SDS011;47267;48.130;-2.040;2023-04-03T02:41:39;2.50;;;1.33;;
61397;SDS011;47267;48.130;-2.040;2023-04-03T02:44:08;2.15;;;1.05;;
61397;SDS011;47267;48.130;-2.040;2023-04-03T02:46:35;1.83;;;1.10;;
61397;SDS011;47267;48.130;-2.040;2023-04-03T02:49:01;1.83;;;1.13;;
61397;SDS011;47267;48.130;-2.040;2023-04-03T02:51:28;2.13;;;1.40;;
61397;SDS011;47267;48.130;-2.040;2023-04-03T02:53:53;2.10;;;1.23;;
61397;SDS011;47267;48.130;-2.040;2023-04-03T02:56:19;2.00;;;1.30;;
61397;SDS011;47267;48.130;-2.040;2023-04-03T02:58:48;2.65;;;1.38;;
61397;SDS011;47267;48.130;-2.040;2023-04-03T03:01:14;3.88;;;1.27;;
61397;SDS011;47267;48.130;-2.040;2023-04-03T03:03:39;2.00;;;1.10;;
61397;SDS011;47267;48.130;-2.040;2023-04-03T03:06:09;3.35;;;1.33;;
61397;SDS011;47267;48.130;-2.040;2023-04-03T03:08:37;3.38;;;1.40;;
61397;SDS011;47267;48.130;-2.040;2023-04-03T03:11:09;2.33;;;1.00;;
61397;SDS011;47267;48.130;-2.040;2023-04-03T03:13:35;2.03;;;1.20;;
61397;SDS011;47267;48.130;-2.040;2023-04-03T03:16:01;2.08;;;1.10;;
61397;SDS011;47267;48.130;-2.040;2023-04-03T03:18:28;2.80;;;1.65;;
61397;SDS011;47267;48.130;-2.040;2023-04-03T03:20:57;2.28;;;1.30;;
61397;SDS011;47267;48.130;-2.040;2023-04-03T03:23:25;2.08;;;1.45;;
61397;SDS011;47267;48.130;-2.040;2023-04-03T03:25:58;2.72;;;1.45;;
61397;SDS011;47267;48.130;-2.040;2023-04-03T03:28:26;3.17;;;1.30;;
61397;SDS011;47267;48.130;-2.040;2023-04-03T03:30:52;2.47;;;1.33;;
61397;SDS011;47267;48.130;-2.040;2023-04-03T03:33:18;2.30;;;1.30;;
61397;SDS011;47267;48.130;-2.040;2023-04-03T03:35:44;1.85;;;1.30;;
61397;SDS011;47267;48.130;-2.040;2023-04-03T03:38:10;2.17;;;1.00;;
61397;SDS011;47267;48.130;-2.040;2023-04-03T03:40:36;2.38;;;1.17;;
61397;SDS011;47267;48.130;-2.040;2023-04-03T03:43:02;2.30;;;1.38;;
61397;SDS011;47267;48.130;-2.040;2023-04-03T03:45:28;2.22;;;1.30;;
61397;SDS011;47267;48.130;-2.040;2023-04-03T03:47:54;2.40;;;1.35;;
61397;SDS011;47267;48.130;-2.040;2023-04-03T03:50:20;3.00;;;1.40;;
61397;SDS011;47267;48.130;-2.040;2023-04-03T03:52:45;1.80;;;1.35;;
61397;SDS011;47267;48.130;-2.040;2023-04-03T03:55:11;1.40;;;1.00;;
61397;SDS011;47267;48.130;-2.040;2023-04-03T03:57:37;1.95;;;1.13;;
61397;SDS011;47267;48.130;-2.040;2023-04-03T04:00:03;1.98;;;1.10;;
61397;SDS011;47267;48.130;-2.040;2023-04-03T04:02:29;1.83;;;1.15;;
61397;SDS011;47267;48.130;-2.040;2023-04-03T04:04:55;2.13;;;1.10;;
61397;SDS011;47267;48.130;-2.040;2023-04-03T04:07:21;2.00;;;0.98;;
61397;SDS011;47267;48.130;-2.040;2023-04-03T04:09:47;1.50;;;0.90;;
61397;SDS011;47267;48.130;-2.040;2023-04-03T04:12:13;2.00;;;1.00;;
61397;SDS011;47267;48.130;-2.040;2023-04-03T04:14:39;3.05;;;1.10;;
61397;SDS011;47267;48.130;-2.040;2023-04-03T04:17:05;2.00;;;1.08;;
61397;SDS011;47267;48.130;-2.040;2023-04-03T04:19:30;2.38;;;1.10;;
61397;SDS011;47267;48.130;-2.040;2023-04-03T04:21:56;2.00;;;1.10;;
61397;SDS011;47267;48.130;-2.040;2023-04-03T04:24:21;2.25;;;1.10;;
61397;SDS011;47267;48.130;-2.040;2023-04-03T04:26:50;2.47;;;1.10;;
61397;SDS011;47267;48.130;-2.040;2023-04-03T04:29:16;2.35;;;0.93;;
61397;SDS011;47267;48.130;-2.040;2023-04-03T04:31:42;1.60;;;1.02;;
61397;SDS011;47267;48.130;-2.040;2023-04-03T04:34:07;2.30;;;1.25;;
61397;SDS011;47267;48.130;-2.040;2023-04-03T04:36:33;2.47;;;1.00;;
61397;SDS011;47267;48.130;-2.040;2023-04-03T04:38:59;2.90;;;1.02;;
61397;SDS011;47267;48.130;-2.040;2023-04-03T04:41:24;2.65;;;1.10;;
61397;SDS011;47267;48.130;-2.040;2023-04-03T04:43:51;1.60;;;1.00;;
61397;SDS011;47267;48.130;-2.040;2023-04-03T04:46:17;1.08;;;0.80;;
61397;SDS011;47267;48.130;-2.040;2023-04-03T04:48:43;1.90;;;1.00;;
61397;SDS011;47267;48.130;-2.040;2023-04-03T04:51:10;2.38;;;1.05;;
61397;SDS011;47267;48.130;-2.040;2023-04-03T04:53:36;2.03;;;0.90;;
61397;SDS011;47267;48.130;-2.040;2023-04-03T04:56:02;2.05;;;1.02;;
61397;SDS011;47267;48.130;-2.040;2023-04-03T04:58:28;1.73;;;0.90;;
61397;SDS011;47267;48.130;-2.040;2023-04-03T05:01:00;2.10;;;1.10;;
61397;SDS011;47267;48.130;-2.040;2023-04-03T05:03:27;2.20;;;1.10;;
61397;SDS011;47267;48.130;-2.040;2023-04-03T05:05:53;1.85;;;0.98;;
61397;SDS011;47267;48.130;-2.040;2023-04-03T05:08:18;1.50;;;0.90;;
61397;SDS011;47267;48.130;-2.040;2023-04-03T05:10:45;3.53;;;1.20;;
61397;SDS011;47267;48.130;-2.040;2023-04-03T05:13:11;2.60;;;1.00;;
61397;SDS011;47267;48.130;-2.040;2023-04-03T05:15:40;1.58;;;1.08;;
61397;SDS011;47267;48.130;-2.040;2023-04-03T05:18:06;2.17;;;1.00;;
61397;SDS011;47267;48.130;-2.040;2023-04-03T05:20:32;3.08;;;1.20;;
61397;SDS011;47267;48.130;-2.040;2023-04-03T05:23:00;2.95;;;1.00;;
61397;SDS011;47267;48.130;-2.040;2023-04-03T05:25:26;1.80;;;0.90;;
61397;SDS011;47267;48.130;-2.040;2023-04-03T05:27:52;3.42;;;1.00;;
61397;SDS011;47267;48.130;-2.040;2023-04-03T05:30:18;1.90;;;0.90;;
61397;SDS011;47267;48.130;-2.040;2023-04-03T05:32:44;1.30;;;0.82;;
61397;SDS011;47267;48.130;-2.040;2023-04-03T05:35:10;1.70;;;1.10;;
61397;SDS011;47267;48.130;-2.040;2023-04-03T05:37:36;1.88;;;0.90;;
61397;SDS011;47267;48.130;-2.040;2023-04-03T05:40:02;2.50;;;1.15;;
61397;SDS011;47267;48.130;-2.040;2023-04-03T05:42:29;2.90;;;1.20;;
61397;SDS011;47267;48.130;-2.040;2023-04-03T05:44:55;5.18;;;1.35;;
61397;SDS011;47267;48.130;-2.040;2023-04-03T05:47:20;2.83;;;1.05;;
61397;SDS011;47267;48.130;-2.040;2023-04-03T05:49:49;6.25;;;1.45;;
61397;SDS011;47267;48.130;-2.040;2023-04-03T05:52:22;3.47;;;1.20;;
61397;SDS011;47267;48.130;-2.040;2023-04-03T05:54:53;3.10;;;1.15;;
61397;SDS011;47267;48.130;-2.040;2023-04-03T05:57:19;7.32;;;1.65;;
61397;SDS011;47267;48.130;-2.040;2023-04-03T05:59:45;3.05;;;1.33;;
61397;SDS011;47267;48.130;-2.040;2023-04-03T06:02:12;2.95;;;1.40;;
61397;SDS011;47267;48.130;-2.040;2023-04-03T06:04:43;5.57;;;1.17;;
61397;SDS011;47267;48.130;-2.040;2023-04-03T06:07:13;6.05;;;1.60;;
61397;SDS011;47267;48.130;-2.040;2023-04-03T06:09:41;5.65;;;2.10;;
61397;SDS011;47267;48.130;-2.040;2023-04-03T06:12:08;2.90;;;1.15;;
61397;SDS011;47267;48.130;-2.040;2023-04-03T06:14:33;4.72;;;1.58;;
61397;SDS011;47267;48.130;-2.040;2023-04-03T06:17:00;4.30;;;1.52;;
61397;SDS011;47267;48.130;-2.040;2023-04-03T06:19:29;3.45;;;1.42;;
61397;SDS011;47267;48.130;-2.040;2023-04-03T06:21:55;5.03;;;1.50;;
61397;SDS011;47267;48.130;-2.040;2023-04-03T06:24:21;4.75;;;1.92;;
61397;SDS011;47267;48.130;-2.040;2023-04-03T06:26:49;4.72;;;1.70;;
61397;SDS011;47267;48.130;-2.040;2023-04-03T06:29:16;6.68;;;1.95;;
61397;SDS011;47267;48.130;-2.040;2023-04-03T06:31:42;4.65;;;1.83;;
61397;SDS011;47267;48.130;-2.040;2023-04-03T06:34:11;5.07;;;1.85;;
61397;SDS011;47267;48.130;-2.040;2023-04-03T06:36:38;6.28;;;2.15;;
61397;SDS011;47267;48.130;-2.040;2023-04-03T06:39:04;6.65;;;2.15;;
61397;SDS011;47267;48.130;-2.040;2023-04-03T06:41:30;4.70;;;1.85;;
61397;SDS011;47267;48.130;-2.040;2023-04-03T06:43:56;7.35;;;2.20;;
61397;SDS011;47267;48.130;-2.040;2023-04-03T06:46:23;4.93;;;2.10;;
61397;SDS011;47267;48.130;-2.040;2023-04-03T06:48:51;8.05;;;2.15;;
61397;SDS011;47267;48.130;-2.040;2023-04-03T06:51:19;6.63;;;2.15;;
61397;SDS011;47267;48.130;-2.040;2023-04-03T06:53:50;6.43;;;1.92;;
61397;SDS011;47267;48.130;-2.040;2023-04-03T06:56:17;5.22;;;1.80;;
61397;SDS011;47267;48.130;-2.040;2023-04-03T06:58:45;7.15;;;1.90;;
61397;SDS011;47267;48.130;-2.040;2023-04-03T07:01:14;5.45;;;1.98;;
61397;SDS011;47267;48.130;-2.040;2023-04-03T07:03:41;5.88;;;2.13;;
61397;SDS011;47267;48.130;-2.040;2023-04-03T07:06:07;6.72;;;2.08;;
61397;SDS011;47267;48.130;-2.040;2023-04-03T07:08:38;6.00;;;2.33;;
61397;SDS011;47267;48.130;-2.040;2023-04-03T07:11:05;6.22;;;2.30;;
61397;SDS011;47267;48.130;-2.040;2023-04-03T07:13:32;6.57;;;2.00;;
61397;SDS011;47267;48.130;-2.040;2023-04-03T07:15:58;5.57;;;2.00;;
61397;SDS011;47267;48.130;-2.040;2023-04-03T07:18:24;5.75;;;1.60;;
61397;SDS011;47267;48.130;-2.040;2023-04-03T07:20:50;7.32;;;2.25;;
61397;SDS011;47267;48.130;-2.040;2023-04-03T07:23:16;4.93;;;1.80;;
61397;SDS011;47267;48.130;-2.040;2023-04-03T07:25:46;4.90;;;1.73;;
61397;SDS011;47267;48.130;-2.040;2023-04-03T07:28:13;4.80;;;2.20;;
61397;SDS011;47267;48.130;-2.040;2023-04-03T07:30:50;6.07;;;2.42;;
61397;SDS011;47267;48.130;-2.040;2023-04-03T07:33:18;4.65;;;1.92;;
61397;SDS011;47267;48.130;-2.040;2023-04-03T07:35:44;6.53;;;1.95;;
61397;SDS011;47267;48.130;-2.040;2023-04-03T07:38:10;4.35;;;2.00;;
61397;SDS011;47267;48.130;-2.040;2023-04-03T07:40:37;6.30;;;2.00;;
61397;SDS011;47267;48.130;-2.040;2023-04-03T07:43:04;4.45;;;1.83;;
61397;SDS011;47267;48.130;-2.040;2023-04-03T07:45:30;5.35;;;2.13;;
61397;SDS011;47267;48.130;-2.040;2023-04-03T07:47:56;5.57;;;1.90;;
61397;SDS011;47267;48.130;-2.040;2023-04-03T07:50:22;6.72;;;2.03;;
61397;SDS011;47267;48.130;-2.040;2023-04-03T07:52:48;6.32;;;1.83;;
61397;SDS011;47267;48.130;-2.040;2023-04-03T07:55:15;5.80;;;1.98;;
61397;SDS011;47267;48.130;-2.040;2023-04-03T07:57:41;4.25;;;1.65;;
61397;SDS011;47267;48.130;-2.040;2023-04-03T08:00:07;4.97;;;2.03;;
61397;SDS011;47267;48.130;-2.040;2023-04-03T08:02:34;3.70;;;1.83;;
61397;SDS011;47267;48.130;-2.040;2023-04-03T08:05:01;5.32;;;2.00;;
61397;SDS011;47267;48.130;-2.040;2023-04-03T08:07:26;5.30;;;1.88;;
61397;SDS011;47267;48.130;-2.040;2023-04-03T08:09:52;3.10;;;1.40;;
61397;SDS011;47267;48.130;-2.040;2023-04-03T08:12:18;5.13;;;1.88;;
61397;SDS011;47267;48.130;-2.040;2023-04-03T08:14:43;4.55;;;2.08;;
61397;SDS011;47267;48.130;-2.040;2023-04-03T08:17:09;3.53;;;1.42;;
61397;SDS011;47267;48.130;-2.040;2023-04-03T08:19:37;3.67;;;1.55;;
61397;SDS011;47267;48.130;-2.040;2023-04-03T08:22:03;6.00;;;1.90;;
61397;SDS011;47267;48.130;-2.040;2023-04-03T08:24:30;4.75;;;1.77;;
61397;SDS011;47267;48.130;-2.040;2023-04-03T08:26:56;5.05;;;1.77;;
61397;SDS011;47267;48.130;-2.040;2023-04-03T08:29:22;3.95;;;1.63;;
61397;SDS011;47267;48.130;-2.040;2023-04-03T08:31:48;4.68;;;1.50;;
61397;SDS011;47267;48.130;-2.040;2023-04-03T08:34:15;5.03;;;1.70;;
61397;SDS011;47267;48.130;-2.040;2023-04-03T08:36:42;4.80;;;1.80;;
61397;SDS011;47267;48.130;-2.040;2023-04-03T08:39:08;5.18;;;1.73;;
61397;SDS011;47267;48.130;-2.040;2023-04-03T08:41:37;4.10;;;1.60;;
61397;SDS011;47267;48.130;-2.040;2023-04-03T08:44:13;3.90;;;1.55;;
61397;SDS011;47267;48.130;-2.040;2023-04-03T08:47:09;6.20;;;1.85;;
61397;SDS011;47267;48.130;-2.040;2023-04-03T08:49:37;2.40;;;1.10;;
61397;SDS011;47267;48.130;-2.040;2023-04-03T08:52:12;3.97;;;1.48;;
61397;SDS011;47267;48.130;-2.040;2023-04-03T08:54:52;4.43;;;1.63;;
61397;SDS011;47267;48.130;-2.040;2023-04-03T08:57:31;3.85;;;1.48;;
61397;SDS011;47267;48.130;-2.040;2023-04-03T09:00:01;3.28;;;1.30;;
61397;SDS011;47267;48.130;-2.040;2023-04-03T09:02:43;2.78;;;1.60;;
61397;SDS011;47267;48.130;-2.040;2023-04-03T09:05:18;3.42;;;1.40;;
61397;SDS011;47267;48.130;-2.040;2023-04-03T09:08:20;5.17;;;1.70;;
61397;SDS011;47267;48.130;-2.040;2023-04-03T09:11:05;3.03;;;1.30;;
61397;SDS011;47267;48.130;-2.040;2023-04-03T09:19:12;3.95;;;1.60;;
61397;SDS011;47267;48.130;-2.040;2023-04-03T09:21:51;4.13;;;1.70;;
61397;SDS011;47267;48.130;-2.040;2023-04-03T09:24:17;4.20;;;1.63;;
61397;SDS011;47267;48.130;-2.040;2023-04-03T09:27:01;4.55;;;1.20;;
61397;SDS011;47267;48.130;-2.040;2023-04-03T09:29:31;4.10;;;1.25;;
61397;SDS011;47267;48.130;-2.040;2023-04-03T09:35:00;3.70;;;1.17;;
61397;SDS011;47267;48.130;-2.040;2023-04-03T09:37:44;3.25;;;1.15;;
61397;SDS011;47267;48.130;-2.040;2023-04-03T09:43:01;5.13;;;1.35;;
61397;SDS011;47267;48.130;-2.040;2023-04-03T09:45:44;4.47;;;1.55;;
61397;SDS011;47267;48.130;-2.040;2023-04-03T09:58:40;3.50;;;1.60;;
61397;SDS011;47267;48.130;-2.040;2023-04-03T10:06:44;2.22;;;1.17;;
61397;SDS011;47267;48.130;-2.040;2023-04-03T10:14:34;4.05;;;1.45;;
61397;SDS011;47267;48.130;-2.040;2023-04-03T10:20:33;4.38;;;1.30;;
61397;SDS011;47267;48.130;-2.040;2023-04-03T10:28:31;2.45;;;1.00;;
61397;SDS011;47267;48.130;-2.040;2023-04-03T10:31:17;2.80;;;1.33;;
61397;SDS011;47267;48.130;-2.040;2023-04-03T10:36:37;3.13;;;1.05;;
61397;SDS011;47267;48.130;-2.040;2023-04-03T10:47:38;3.60;;;1.25;;
61397;SDS011;47267;48.130;-2.040;2023-04-03T10:58:45;2.20;;;1.13;;
61397;SDS011;47267;48.130;-2.040;2023-04-03T11:01:21;4.07;;;1.58;;
61397;SDS011;47267;48.130;-2.040;2023-04-03T11:04:00;3.78;;;1.50;;
61397;SDS011;47267;48.130;-2.040;2023-04-03T11:06:43;3.20;;;1.48;;
61397;SDS011;47267;48.130;-2.040;2023-04-03T11:09:19;3.50;;;1.50;;
61397;SDS011;47267;48.130;-2.040;2023-04-03T11:11:51;4.05;;;1.77;;
61397;SDS011;47267;48.130;-2.040;2023-04-03T11:17:04;4.22;;;1.73;;
61397;SDS011;47267;48.130;-2.040;2023-04-03T11:22:09;4.50;;;1.77;;
61397;SDS011;47267;48.130;-2.040;2023-04-03T11:25:02;2.97;;;1.50;;
61397;SDS011;47267;48.130;-2.040;2023-04-03T11:27:51;4.03;;;1.60;;
61397;SDS011;47267;48.130;-2.040;2023-04-03T11:36:07;3.05;;;1.50;;
61397;SDS011;47267;48.130;-2.040;2023-04-03T11:38:38;4.03;;;1.27;;
61397;SDS011;47267;48.130;-2.040;2023-04-03T11:41:08;3.75;;;1.70;;
61397;SDS011;47267;48.130;-2.040;2023-04-03T11:43:40;3.72;;;1.60;;
61397;SDS011;47267;48.130;-2.040;2023-04-03T11:46:08;3.53;;;1.40;;
61397;SDS011;47267;48.130;-2.040;2023-04-03T12:04:11;4.50;;;1.55;;
61397;SDS011;47267;48.130;-2.040;2023-04-03T12:09:25;2.97;;;1.40;;
61397;SDS011;47267;48.130;-2.040;2023-04-03T12:11:52;3.45;;;1.27;;
61397;SDS011;47267;48.130;-2.040;2023-04-03T12:14:20;4.90;;;1.55;;
61397;SDS011;47267;48.130;-2.040;2023-04-03T12:16:50;3.00;;;1.20;;
61397;SDS011;47267;48.130;-2.040;2023-04-03T12:26:41;2.60;;;1.23;;
61397;SDS011;47267;48.130;-2.040;2023-04-03T12:29:46;4.68;;;1.30;;
61397;SDS011;47267;48.130;-2.040;2023-04-03T12:46:02;3.85;;;1.23;;
61397;SDS011;47267;48.130;-2.040;2023-04-03T12:48:41;3.83;;;1.30;;
61397;SDS011;47267;48.130;-2.040;2023-04-03T12:54:26;3.05;;;1.10;;
61397;SDS011;47267;48.130;-2.040;2023-04-03T12:59:44;3.58;;;1.48;;
61397;SDS011;47267;48.130;-2.040;2023-04-03T13:02:28;2.00;;;1.20;;
61397;SDS011;47267;48.130;-2.040;2023-04-03T13:05:06;2.47;;;1.27;;
61397;SDS011;47267;48.130;-2.040;2023-04-03T13:07:37;3.00;;;1.40;;
61397;SDS011;47267;48.130;-2.040;2023-04-03T13:12:35;2.17;;;1.30;;
61397;SDS011;47267;48.130;-2.040;2023-04-03T13:15:21;2.75;;;1.48;;
61397;SDS011;47267;48.130;-2.040;2023-04-03T13:17:54;2.55;;;1.10;;
61397;SDS011;47267;48.130;-2.040;2023-04-03T13:23:05;1.35;;;1.02;;
61397;SDS011;47267;48.130;-2.040;2023-04-03T13:25:35;3.85;;;1.23;;
61397;SDS011;47267;48.130;-2.040;2023-04-03T13:28:06;2.05;;;1.38;;
61397;SDS011;47267;48.130;-2.040;2023-04-03T13:30:37;2.90;;;1.30;;
61397;SDS011;47267;48.130;-2.040;2023-04-03T13:33:05;2.05;;;1.30;;
61397;SDS011;47267;48.130;-2.040;2023-04-03T13:35:44;2.28;;;1.38;;
61397;SDS011;47267;48.130;-2.040;2023-04-03T13:43:19;1.95;;;1.15;;
61397;SDS011;47267;48.130;-2.040;2023-04-03T13:46:04;1.40;;;1.00;;
61397;SDS011;47267;48.130;-2.040;2023-04-03T13:48:47;2.50;;;1.35;;
61397;SDS011;47267;48.130;-2.040;2023-04-03T13:51:23;2.67;;;1.10;;
61397;SDS011;47267;48.130;-2.040;2023-04-03T13:58:54;2.47;;;1.40;;
61397;SDS011;47267;48.130;-2.040;2023-04-03T14:01:20;1.98;;;1.10;;
61397;SDS011;47267;48.130;-2.040;2023-04-03T14:03:55;2.25;;;1.23;;
61397;SDS011;47267;48.130;-2.040;2023-04-03T14:06:25;2.17;;;1.30;;
61397;SDS011;47267;48.130;-2.040;2023-04-03T14:08:51;1.98;;;1.20;;
61397;SDS011;47267;48.130;-2.040;2023-04-03T14:11:19;1.33;;;1.08;;
61397;SDS011;47267;48.130;-2.040;2023-04-03T14:16:16;2.38;;;1.05;;
61397;SDS011;47267;48.130;-2.040;2023-04-03T14:18:45;2.45;;;1.30;;
61397;SDS011;47267;48.130;-2.040;2023-04-03T14:21:12;2.88;;;0.95;;
61397;SDS011;47267;48.130;-2.040;2023-04-03T14:23:40;6.25;;;1.52;;
61397;SDS011;47267;48.130;-2.040;2023-04-03T14:26:12;2.00;;;1.10;;
61397;SDS011;47267;48.130;-2.040;2023-04-03T14:28:43;1.95;;;1.20;;
61397;SDS011;47267;48.130;-2.040;2023-04-03T14:31:13;1.85;;;1.20;;
61397;SDS011;47267;48.130;-2.040;2023-04-03T14:33:40;2.10;;;1.25;;
61397;SDS011;47267;48.130;-2.040;2023-04-03T14:36:12;2.72;;;1.30;;
61397;SDS011;47267;48.130;-2.040;2023-04-03T14:38:39;2.28;;;1.33;;
61397;SDS011;47267;48.130;-2.040;2023-04-03T14:41:06;2.10;;;1.10;;
61397;SDS011;47267;48.130;-2.040;2023-04-03T14:43:32;1.92;;;1.50;;
61397;SDS011;47267;48.130;-2.040;2023-04-03T14:45:57;1.70;;;1.20;;
61397;SDS011;47267;48.130;-2.040;2023-04-03T14:48:24;2.00;;;1.30;;
61397;SDS011;47267;48.130;-2.040;2023-04-03T14:50:52;2.42;;;1.00;;
61397;SDS011;47267;48.130;-2.040;2023-04-03T14:53:19;1.83;;;1.10;;
61397;SDS011;47267;48.130;-2.040;2023-04-03T14:55:48;2.05;;;1.15;;
61397;SDS011;47267;48.130;-2.040;2023-04-03T14:58:15;3.92;;;1.20;;
61397;SDS011;47267;48.130;-2.040;2023-04-03T15:00:43;2.22;;;1.30;;
61397;SDS011;47267;48.130;-2.040;2023-04-03T15:03:12;2.10;;;1.17;;
61397;SDS011;47267;48.130;-2.040;2023-04-03T15:05:43;1.58;;;1.10;;
61397;SDS011;47267;48.130;-2.040;2023-04-03T15:08:16;2.42;;;1.33;;
61397;SDS011;47267;48.130;-2.040;2023-04-03T15:10:51;1.50;;;1.10;;
61397;SDS011;47267;48.130;-2.040;2023-04-03T15:13:18;2.13;;;1.23;;
61397;SDS011;47267;48.130;-2.040;2023-04-03T15:15:45;2.88;;;1.20;;
61397;SDS011;47267;48.130;-2.040;2023-04-03T15:18:33;1.58;;;1.10;;
61397;SDS011;47267;48.130;-2.040;2023-04-03T15:21:01;1.70;;;1.00;;
61397;SDS011;47267;48.130;-2.040;2023-04-03T15:23:27;1.77;;;1.10;;
61397;SDS011;47267;48.130;-2.040;2023-04-03T15:25:57;1.40;;;1.17;;
61397;SDS011;47267;48.130;-2.040;2023-04-03T15:31:00;1.52;;;1.10;;
61397;SDS011;47267;48.130;-2.040;2023-04-03T15:33:26;2.22;;;1.20;;
61397;SDS011;47267;48.130;-2.040;2023-04-03T15:35:55;2.00;;;1.30;;
61397;SDS011;47267;48.130;-2.040;2023-04-03T15:38:21;1.23;;;0.98;;
61397;SDS011;47267;48.130;-2.040;2023-04-03T15:40:47;1.92;;;1.40;;
61397;SDS011;47267;48.130;-2.040;2023-04-03T15:43:13;2.45;;;1.30;;
61397;SDS011;47267;48.130;-2.040;2023-04-03T15:45:39;1.73;;;1.10;;
61397;SDS011;47267;48.130;-2.040;2023-04-03T15:48:06;3.90;;;1.15;;
61397;SDS011;47267;48.130;-2.040;2023-04-03T15:50:32;1.35;;;0.98;;
61397;SDS011;47267;48.130;-2.040;2023-04-03T15:52:59;1.23;;;1.13;;
61397;SDS011;47267;48.130;-2.040;2023-04-03T15:55:27;2.13;;;1.20;;
61397;SDS011;47267;48.130;-2.040;2023-04-03T15:57:57;2.55;;;1.23;;
61397;SDS011;47267;48.130;-2.040;2023-04-03T16:00:23;1.70;;;1.20;;
61397;SDS011;47267;48.130;-2.040;2023-04-03T16:02:53;1.52;;;1.10;;
61397;SDS011;47267;48.130;-2.040;2023-04-03T16:05:24;1.90;;;1.25;;
61397;SDS011;47267;48.130;-2.040;2023-04-03T16:07:50;3.63;;;1.17;;
61397;SDS011;47267;48.130;-2.040;2023-04-03T16:10:17;2.38;;;1.30;;
61397;SDS011;47267;48.130;-2.040;2023-04-03T16:12:44;1.60;;;1.23;;
61397;SDS011;47267;48.130;-2.040;2023-04-03T16:15:10;2.55;;;1.10;;
61397;SDS011;47267;48.130;-2.040;2023-04-03T16:17:37;2.65;;;0.90;;
61397;SDS011;47267;48.130;-2.040;2023-04-03T16:20:06;1.70;;;1.23;;
61397;SDS011;47267;48.130;-2.040;2023-04-03T16:22:33;1.90;;;1.27;;
61397;SDS011;47267;48.130;-2.040;2023-04-03T16:24:59;2.17;;;1.17;;
61397;SDS011;47267;48.130;-2.040;2023-04-03T16:27:25;1.20;;;1.10;;
61397;SDS011;47267;48.130;-2.040;2023-04-03T16:29:53;1.80;;;1.13;;
61397;SDS011;47267;48.130;-2.040;2023-04-03T16:32:23;1.63;;;1.10;;
61397;SDS011;47267;48.130;-2.040;2023-04-03T16:34:52;1.75;;;1.10;;
61397;SDS011;47267;48.130;-2.040;2023-04-03T16:37:18;1.67;;;1.20;;
61397;SDS011;47267;48.130;-2.040;2023-04-03T16:39:44;2.33;;;1.30;;
61397;SDS011;47267;48.130;-2.040;2023-04-03T16:42:09;1.80;;;1.20;;
61397;SDS011;47267;48.130;-2.040;2023-04-03T16:44:36;1.98;;;0.93;;
61397;SDS011;47267;48.130;-2.040;2023-04-03T16:47:02;1.92;;;1.10;;
61397;SDS011;47267;48.130;-2.040;2023-04-03T16:49:29;1.70;;;1.15;;
61397;SDS011;47267;48.130;-2.040;2023-04-03T16:51:58;3.80;;;1.05;;
61397;SDS011;47267;48.130;-2.040;2023-04-03T16:54:24;2.80;;;1.10;;
61397;SDS011;47267;48.130;-2.040;2023-04-03T16:56:50;2.20;;;1.20;;
61397;SDS011;47267;48.130;-2.040;2023-04-03T16:59:16;2.60;;;1.10;;
61397;SDS011;47267;48.130;-2.040;2023-04-03T17:01:41;2.78;;;1.40;;
61397;SDS011;47267;48.130;-2.040;2023-04-03T17:04:07;2.20;;;1.23;;
61397;SDS011;47267;48.130;-2.040;2023-04-03T17:06:33;1.85;;;1.10;;
61397;SDS011;47267;48.130;-2.040;2023-04-03T17:09:00;1.73;;;1.10;;